createdAt,value
2019-04-26T00:02:18.390Z,5.28
2019-04-26T00:04:47.092Z,4.70
2019-04-26T00:07:16.614Z,5.25
2019-04-26T00:09:45.623Z,4.80
2019-04-26T00:12:16.390Z,4.55
2019-04-26T00:14:58.491Z,4.75
2019-04-26T00:17:28.739Z,4.60
2019-04-26T00:19:57.397Z,5.22
2019-04-26T00:22:25.819Z,5.10
2019-04-26T00:24:54.279Z,4.60
2019-04-26T00:27:22.707Z,5.30
2019-04-26T00:29:51.143Z,5.50
2019-04-26T00:32:19.583Z,4.97
2019-04-26T00:34:48.023Z,5.60
2019-04-26T00:37:16.443Z,5.22
2019-04-26T00:39:44.892Z,5.50
2019-04-26T00:42:14.609Z,5.42
2019-04-26T00:44:43.876Z,4.67
2019-04-26T00:47:14.207Z,4.90
2019-04-26T00:49:44.331Z,4.58
2019-04-26T00:52:14.622Z,4.95
2019-04-26T00:54:45.357Z,4.92
2019-04-26T00:57:15.972Z,5.62
2019-04-26T00:59:44.514Z,5.00
2019-04-26T01:02:23.591Z,4.50
2019-04-26T01:04:52.039Z,4.75
2019-04-26T01:07:21.149Z,5.87
2019-04-26T01:09:49.682Z,5.45
2019-04-26T01:12:18.104Z,5.12
2019-04-26T01:14:46.549Z,4.95
2019-04-26T01:17:16.151Z,5.80
2019-04-26T01:19:48.193Z,5.70
2019-04-26T01:22:19.760Z,4.85
2019-04-26T01:24:50.365Z,5.05
2019-04-26T01:27:21.876Z,5.00
2019-04-26T01:30:11.171Z,4.97
2019-04-26T01:32:42.769Z,4.70
2019-04-26T01:35:11.751Z,5.42
2019-04-26T01:37:42.187Z,5.10
2019-04-26T01:40:12.326Z,4.75
2019-04-26T01:42:47.482Z,4.60
2019-04-26T01:45:27.924Z,5.15
2019-04-26T01:47:59.648Z,5.03
2019-04-26T01:50:29.822Z,4.90
2019-04-26T01:52:59.187Z,4.70
2019-04-26T01:55:31.212Z,5.42
2019-04-26T01:58:02.814Z,4.95
2019-04-26T02:00:47.844Z,5.03
2019-04-26T02:03:21.550Z,5.15
2019-04-26T02:05:51.638Z,4.83
2019-04-26T02:08:20.062Z,4.42
2019-04-26T02:10:48.571Z,5.15
2019-04-26T02:13:17.132Z,5.00
2019-04-26T02:15:45.584Z,4.72
2019-04-26T02:18:14.092Z,4.67
2019-04-26T02:20:53.316Z,4.83
2019-04-26T02:23:30.056Z,4.50
2019-04-26T02:26:00.484Z,4.75
2019-04-26T02:28:28.909Z,4.97
2019-04-26T02:30:57.471Z,4.87
2019-04-26T02:33:27.453Z,5.10
2019-04-26T02:35:56.068Z,4.87
2019-04-26T02:38:25.780Z,4.67
2019-04-26T02:40:54.843Z,4.90
2019-04-26T02:43:26.478Z,5.35
2019-04-26T02:45:57.525Z,5.10
2019-04-26T02:48:32.187Z,5.60
2019-04-26T02:51:06.833Z,5.85
2019-04-26T02:53:52.688Z,4.85
2019-04-26T02:56:24.191Z,4.78
2019-04-26T02:59:01.459Z,5.72
2019-04-26T03:01:32.413Z,4.78
2019-04-26T03:04:00.381Z,5.67
2019-04-26T03:06:32.762Z,5.37
2019-04-26T03:09:06.069Z,5.17
2019-04-26T03:12:08.809Z,4.70
2019-04-26T03:14:42.054Z,5.20
2019-04-26T03:17:13.081Z,4.72
2019-04-26T03:23:03.406Z,5.22
2019-04-26T03:25:42.223Z,5.55
2019-04-26T03:28:25.724Z,4.75
2019-04-26T03:31:21.330Z,4.90
2019-04-26T03:34:22.006Z,4.65
2019-04-26T03:37:20.990Z,4.78
2019-04-26T03:39:55.744Z,5.00
2019-04-26T03:42:35.159Z,5.10
2019-04-26T03:45:18.433Z,4.78
2019-04-26T03:47:52.876Z,4.78
2019-04-26T03:50:30.392Z,5.10
2019-04-26T03:53:12.452Z,5.30
2019-04-26T03:55:45.592Z,5.72
2019-04-26T03:59:03.729Z,4.87
2019-04-26T04:01:37.269Z,4.35
2019-04-26T04:04:25.609Z,4.95
2019-04-26T04:07:04.234Z,4.72
2019-04-26T04:09:28.279Z,5.03
2019-04-26T04:12:15.867Z,5.15
2019-04-26T04:14:50.159Z,4.33
2019-04-26T04:17:26.256Z,5.10
2019-04-26T04:20:19.889Z,5.00
2019-04-26T04:23:31.062Z,4.55
2019-04-26T04:26:02.564Z,5.10
2019-04-26T04:28:42.066Z,4.70
2019-04-26T04:31:16.104Z,4.90
2019-04-26T04:33:56.663Z,4.50
2019-04-26T04:36:28.175Z,4.70
2019-04-26T04:39:14.708Z,4.70
2019-04-26T04:41:49.117Z,5.12
2019-04-26T04:44:30.648Z,5.00
2019-04-26T04:47:22.923Z,5.45
2019-04-26T04:49:45.028Z,5.03
2019-04-26T04:52:35.560Z,5.20
2019-04-26T04:55:28.403Z,6.47
2019-04-26T04:58:09.155Z,4.92
2019-04-26T05:01:24.892Z,5.58
2019-04-26T05:04:03.810Z,4.92
2019-04-26T05:07:17.376Z,4.17
2019-04-26T05:09:57.796Z,5.40
2019-04-26T05:12:29.337Z,5.40
2019-04-26T05:15:19.071Z,4.97
2019-04-26T05:18:02.233Z,5.25
2019-04-26T05:20:33.784Z,5.70
2019-04-26T05:23:24.631Z,33.33
2019-04-26T05:26:06.406Z,8.80
2019-04-26T05:29:02.244Z,7.67
2019-04-26T05:31:39.165Z,5.20
2019-04-26T05:34:12.054Z,4.60
2019-04-26T05:36:55.596Z,4.97
2019-04-26T05:39:27.306Z,5.00
2019-04-26T05:42:14.653Z,5.33
2019-04-26T05:45:08.946Z,5.40
2019-04-26T05:48:01.486Z,6.20
2019-04-26T05:50:49.182Z,4.62
2019-04-26T05:53:55.708Z,5.03
2019-04-26T05:56:56.262Z,4.78
2019-04-26T05:59:46.160Z,4.58
2019-04-26T06:02:55.371Z,4.78
2019-04-26T06:05:52.403Z,4.53
2019-04-26T06:08:36.884Z,5.00
2019-04-26T06:11:22.053Z,4.33
2019-04-26T06:14:06.844Z,4.97
2019-04-26T06:16:54.854Z,4.53
2019-04-26T06:19:53.245Z,4.33
2019-04-26T06:22:27.476Z,4.42
2019-04-26T06:25:09.574Z,4.17
2019-04-26T06:27:51.938Z,4.53
2019-04-26T06:30:25.293Z,4.42
2019-04-26T06:33:06.267Z,5.08
2019-04-26T06:35:39.025Z,4.80
2019-04-26T06:38:43.744Z,4.70
2019-04-26T06:41:30.020Z,5.00
2019-04-26T06:44:05.849Z,5.78
2019-04-26T06:46:50.591Z,6.12
2019-04-26T06:49:23.759Z,6.53
2019-04-26T06:52:00.810Z,6.97
2019-04-26T06:54:48.824Z,6.03
2019-04-26T06:57:54.672Z,5.67
2019-04-26T07:00:27.197Z,6.08
2019-04-26T07:03:23.049Z,5.87
2019-04-26T07:05:58.937Z,5.65
2019-04-26T07:08:39.301Z,5.17
2019-04-26T07:11:49.993Z,5.00
2019-04-26T07:14:51.921Z,4.47
2019-04-26T07:17:28.523Z,4.25
2019-04-26T07:20:24.828Z,4.00
2019-04-26T07:22:57.982Z,4.17
2019-04-26T07:25:45.833Z,4.70
2019-04-26T07:28:36.693Z,4.97
2019-04-26T07:31:24.715Z,4.10
2019-04-26T07:34:22.293Z,4.60
2019-04-26T07:37:11.302Z,3.62
2019-04-26T07:40:11.607Z,3.83
2019-04-26T07:42:50.335Z,3.70
2019-04-26T07:45:46.153Z,3.60
2019-04-26T07:48:26.265Z,3.40
2019-04-26T07:51:18.826Z,3.50
2019-04-26T07:54:24.540Z,3.33
2019-04-26T07:57:03.076Z,4.10
2019-04-26T07:59:55.662Z,3.80
2019-04-26T08:02:43.843Z,4.00
2019-04-26T08:05:40.952Z,3.95
2019-04-26T08:08:12.845Z,3.92
2019-04-26T08:10:44.472Z,3.95
2019-04-26T08:13:15.997Z,3.62
2019-04-26T08:16:06.852Z,3.98
2019-04-26T08:18:46.009Z,4.03
2019-04-26T08:21:25.057Z,3.85
2019-04-26T08:24:16.723Z,4.10
2019-04-26T08:26:48.729Z,4.67
2019-04-26T08:29:20.258Z,4.10
2019-04-26T08:31:53.590Z,3.62
2019-04-26T08:34:29.747Z,3.85
2019-04-26T08:37:01.929Z,2.95
2019-04-26T08:39:44.991Z,3.15
2019-04-26T08:42:05.138Z,2.90
2019-04-26T08:44:52.479Z,2.75
2019-04-26T08:47:26.337Z,3.00
2019-04-26T08:49:55.222Z,2.75
2019-04-26T08:52:27.893Z,2.75
2019-04-26T08:54:58.745Z,2.42
2019-04-26T08:57:30.339Z,2.83
2019-04-26T09:00:02.314Z,2.67
2019-04-26T09:02:40.259Z,2.40
2019-04-26T09:05:13.257Z,2.22
2019-04-26T09:07:44.804Z,2.58
2019-04-26T09:10:16.225Z,2.37
2019-04-26T09:12:48.093Z,2.20
2019-04-26T09:15:19.631Z,2.20
2019-04-26T09:17:48.084Z,2.52
2019-04-26T09:20:28.161Z,2.25
2019-04-26T09:23:04.840Z,2.40
2019-04-26T09:25:39.030Z,2.47
2019-04-26T09:28:18.625Z,2.20
2019-04-26T09:31:04.816Z,2.72
2019-04-26T09:33:45.139Z,2.75
2019-04-26T09:36:13.765Z,2.30
2019-04-26T09:38:42.189Z,2.45
2019-04-26T09:41:10.662Z,2.58
2019-04-26T09:43:46.710Z,3.12
2019-04-26T09:46:16.860Z,2.50
2019-04-26T09:48:46.993Z,2.80
2019-04-26T09:51:15.441Z,2.72
2019-04-26T09:53:44.768Z,2.37
2019-04-26T09:56:13.318Z,2.40
2019-04-26T09:58:41.786Z,2.65
2019-04-26T10:01:10.367Z,2.40
2019-04-26T10:03:38.780Z,2.37
2019-04-26T10:06:08.279Z,12.40
2019-04-26T10:08:37.013Z,3.52
2019-04-26T10:11:09.605Z,3.15
2019-04-26T10:13:42.130Z,3.12
2019-04-26T10:16:18.096Z,2.70
2019-04-26T10:18:48.177Z,2.80
2019-04-26T10:21:16.607Z,5.80
2019-04-26T10:23:45.048Z,12.63
2019-04-26T10:26:13.636Z,3.17
2019-04-26T10:28:42.060Z,4.17
2019-04-26T10:31:13.447Z,7.62
2019-04-26T10:33:40.988Z,5.17
2019-04-26T10:36:09.432Z,3.12
2019-04-26T10:38:37.863Z,3.00
2019-04-26T10:41:06.677Z,2.87
2019-04-26T10:43:35.096Z,2.85
2019-04-26T10:46:03.726Z,2.90
2019-04-26T10:48:32.163Z,3.27
2019-04-26T10:51:03.275Z,4.15
2019-04-26T10:53:35.396Z,11.63
2019-04-26T10:56:08.723Z,5.33
2019-04-26T10:58:38.792Z,3.08
2019-04-26T11:01:10.612Z,2.75
2019-04-26T11:03:39.031Z,2.80
2019-04-26T11:06:07.470Z,3.12
2019-04-26T11:08:35.967Z,5.00
2019-04-26T11:11:06.407Z,3.55
2019-04-26T11:13:34.848Z,3.20
2019-04-26T11:16:07.236Z,2.87
2019-04-26T11:18:33.519Z,2.77
2019-04-26T11:21:01.941Z,2.98
2019-04-26T11:23:30.631Z,2.55
2019-04-26T11:26:01.598Z,2.98
2019-04-26T11:28:29.223Z,2.85
2019-04-26T11:30:57.779Z,3.05
2019-04-26T11:33:26.224Z,3.12
2019-04-26T11:35:54.652Z,2.60
2019-04-26T11:38:26.820Z,6.72
2019-04-26T11:41:05.409Z,3.17
2019-04-26T11:43:23.429Z,4.62
2019-04-26T11:46:03.516Z,3.02
2019-04-26T11:48:25.502Z,3.35
2019-04-26T11:50:53.654Z,3.00
2019-04-26T11:53:22.292Z,3.30
2019-04-26T11:55:50.724Z,2.50
2019-04-26T11:58:22.502Z,2.85
2019-04-26T12:00:50.935Z,3.05
2019-04-26T12:03:21.153Z,2.92
2019-04-26T12:05:51.159Z,3.45
2019-04-26T12:08:21.247Z,3.12
2019-04-26T12:10:49.759Z,2.75
2019-04-26T12:13:21.281Z,3.08
2019-04-26T12:15:48.531Z,3.35
2019-04-26T12:18:17.000Z,3.35
2019-04-26T12:20:45.463Z,3.40
2019-04-26T12:23:20.367Z,3.70
2019-04-26T12:25:48.247Z,3.72
2019-04-26T12:28:16.980Z,4.05
2019-04-26T12:30:45.399Z,2.98
2019-04-26T12:33:13.863Z,3.25
2019-04-26T12:35:42.291Z,3.08
2019-04-26T12:38:10.732Z,3.47
2019-04-26T12:40:42.279Z,3.72
2019-04-26T12:43:09.382Z,3.77
2019-04-26T12:45:39.440Z,3.55
2019-04-26T12:48:12.276Z,3.50
2019-04-26T12:50:39.683Z,3.37
2019-04-26T12:53:08.372Z,3.80
2019-04-26T12:55:36.796Z,3.70
2019-04-26T12:58:05.241Z,4.40
2019-04-26T13:00:37.506Z,3.50
2019-04-26T13:03:05.412Z,3.83
2019-04-26T13:05:33.908Z,4.03
2019-04-26T13:08:02.350Z,3.65
2019-04-26T13:10:41.511Z,3.77
2019-04-26T13:13:17.471Z,4.10
2019-04-26T13:16:02.704Z,4.05
2019-04-26T13:18:31.803Z,3.90
2019-04-26T13:21:03.077Z,3.45
2019-04-26T13:23:31.279Z,3.85
2019-04-26T13:26:01.435Z,4.78
2019-04-26T13:28:30.241Z,3.92
2019-04-26T13:31:01.814Z,4.10
2019-04-26T13:33:29.213Z,3.52
2019-04-26T13:36:04.901Z,4.33
2019-04-26T13:38:28.001Z,3.33
2019-04-26T13:40:59.719Z,4.03
2019-04-26T13:43:28.474Z,4.80
2019-04-26T13:45:58.413Z,4.25
2019-04-26T13:48:45.392Z,5.10
2019-04-26T13:51:18.817Z,4.50
2019-04-26T13:53:47.265Z,3.52
2019-04-26T13:56:15.712Z,4.75
2019-04-26T13:58:44.147Z,4.15
2019-04-26T14:01:14.670Z,3.58
2019-04-26T14:03:43.200Z,3.67
2019-04-26T14:06:11.640Z,4.42
2019-04-26T14:08:40.073Z,3.92
2019-04-26T14:11:08.515Z,4.83
2019-04-26T14:13:36.944Z,3.37
2019-04-26T14:16:05.449Z,3.15
2019-04-26T14:18:34.671Z,3.40
2019-04-26T14:21:04.120Z,2.92
2019-04-26T14:23:50.794Z,3.20
2019-04-26T14:26:30.240Z,3.20
2019-04-26T14:28:59.710Z,3.35
2019-04-26T14:31:28.273Z,3.20
2019-04-26T14:33:56.695Z,2.92
2019-04-26T14:36:26.798Z,3.37
2019-04-26T14:39:05.363Z,3.33
2019-04-26T14:41:25.484Z,3.37
2019-04-26T14:43:56.790Z,3.05
2019-04-26T14:46:24.183Z,3.70
2019-04-26T14:49:01.459Z,3.35
2019-04-26T14:51:22.778Z,3.90
2019-04-26T14:53:51.211Z,3.55
2019-04-26T14:56:19.648Z,3.70
2019-04-26T14:58:48.087Z,3.65
2019-04-26T15:01:35.251Z,3.83
2019-04-26T15:04:23.140Z,3.85
2019-04-26T15:06:57.896Z,3.83
2019-04-26T15:09:29.846Z,4.10
2019-04-26T15:11:59.515Z,6.37
2019-04-26T15:14:23.858Z,3.80
2019-04-26T15:16:52.335Z,3.45
2019-04-26T15:19:22.511Z,4.03
2019-04-26T15:21:53.889Z,3.65
2019-04-26T15:24:22.643Z,4.10
2019-04-26T15:26:51.474Z,3.55
2019-04-26T15:29:21.357Z,3.27
2019-04-26T15:31:53.768Z,3.95
2019-04-26T15:34:23.630Z,4.20
2019-04-26T15:36:50.383Z,3.33
2019-04-26T15:39:26.258Z,3.58
2019-04-26T15:42:08.591Z,3.52
2019-04-26T15:44:38.651Z,3.47
2019-04-26T15:47:08.727Z,3.70
2019-04-26T15:49:38.808Z,3.20
2019-04-26T15:52:07.310Z,2.92
2019-04-26T15:54:35.737Z,3.67
2019-04-26T15:57:06.490Z,2.95
2019-04-26T15:59:34.390Z,3.47
2019-04-26T16:02:03.001Z,3.80
2019-04-26T16:04:32.391Z,3.45
2019-04-26T16:07:02.467Z,3.92
2019-04-26T16:09:32.502Z,2.95
2019-04-26T16:12:03.374Z,3.12
2019-04-26T16:14:36.574Z,3.67
2019-04-26T16:17:03.176Z,3.25
2019-04-26T16:19:31.725Z,4.08
2019-04-26T16:22:00.167Z,3.47
2019-04-26T16:24:29.115Z,4.00
2019-04-26T16:26:57.695Z,4.28
2019-04-26T16:29:27.775Z,4.50
2019-04-26T16:32:16.910Z,4.35
2019-04-26T16:34:47.652Z,4.58
2019-04-26T16:37:22.017Z,4.42
2019-04-26T16:39:48.554Z,4.03
2019-04-26T16:42:16.336Z,4.45
2019-04-26T16:44:45.130Z,4.53
2019-04-26T16:47:13.713Z,4.58
2019-04-26T16:49:45.171Z,4.53
2019-04-26T16:52:14.063Z,5.37
2019-04-26T16:54:42.635Z,4.80
2019-04-26T16:57:12.322Z,5.30
2019-04-26T16:59:49.012Z,5.30
2019-04-26T17:02:15.616Z,5.08
2019-04-26T17:04:43.410Z,5.95
2019-04-26T17:07:13.298Z,7.62
2019-04-26T17:09:57.100Z,8.30
2019-04-26T17:12:15.066Z,8.95
2019-04-26T17:14:47.824Z,9.10
2019-04-26T17:17:13.988Z,10.00
2019-04-26T17:19:43.269Z,9.85
2019-04-26T17:22:15.837Z,10.40
2019-04-26T17:24:53.221Z,10.48
2019-04-26T17:27:23.062Z,11.60
2019-04-26T17:29:52.736Z,11.85
2019-04-26T17:32:23.252Z,11.22
2019-04-26T17:34:54.083Z,11.33
2019-04-26T17:37:26.196Z,10.88
2019-04-26T17:39:55.255Z,11.95
2019-04-26T17:42:25.207Z,12.03
2019-04-26T17:44:52.434Z,11.38
2019-04-26T17:47:20.881Z,11.22
2019-04-26T17:49:50.469Z,12.80
2019-04-26T17:52:20.382Z,13.75
2019-04-26T17:54:49.664Z,14.05
2019-04-26T17:57:32.010Z,14.10
2019-04-26T17:59:51.376Z,13.90
2019-04-26T18:02:39.902Z,15.32
2019-04-26T18:04:58.863Z,15.43
2019-04-26T18:07:39.272Z,15.93
2019-04-26T18:09:50.651Z,17.10
2019-04-26T18:12:20.643Z,16.57
2019-04-26T18:14:49.212Z,16.93
2019-04-26T18:17:19.304Z,19.45
2019-04-26T18:19:49.414Z,20.27
2019-04-26T18:22:28.386Z,20.15
2019-04-26T18:25:14.928Z,22.58
2019-04-26T18:27:54.549Z,24.02
2019-04-26T18:30:23.711Z,23.22
2019-04-26T18:32:52.174Z,24.00
2019-04-26T18:35:20.635Z,22.10
2019-04-26T18:37:49.077Z,25.52
2019-04-26T18:40:20.449Z,25.60
2019-04-26T18:42:47.769Z,24.00
2019-04-26T18:45:21.405Z,23.30
2019-04-26T18:47:46.584Z,23.22
2019-04-26T18:50:15.866Z,21.90
2019-04-26T18:52:52.693Z,22.58
2019-04-26T18:55:29.035Z,23.22
2019-04-26T18:57:59.493Z,24.32
2019-04-26T19:00:26.537Z,24.15
2019-04-26T19:02:55.467Z,24.75
2019-04-26T19:05:29.774Z,23.32
2019-04-26T19:07:54.258Z,21.00
2019-04-26T19:10:25.690Z,21.45
2019-04-26T19:12:56.483Z,20.48
2019-04-26T19:15:25.124Z,18.15
2019-04-26T19:18:07.378Z,17.98
2019-04-26T19:20:43.336Z,17.82
2019-04-26T19:23:12.271Z,15.63
2019-04-26T19:25:41.401Z,15.25
2019-04-26T19:28:10.023Z,16.20
2019-04-26T19:30:39.814Z,16.45
2019-04-26T19:33:10.067Z,17.73
2019-04-26T19:35:39.341Z,18.45
2019-04-26T19:38:13.355Z,17.77
2019-04-26T19:40:42.861Z,18.10
2019-04-26T19:43:09.491Z,17.62
2019-04-26T19:45:45.740Z,19.42
2019-04-26T19:48:20.445Z,18.02
2019-04-26T19:50:50.531Z,17.95
2019-04-26T19:53:24.852Z,18.45
2019-04-26T19:56:11.509Z,15.83
2019-04-26T19:58:42.165Z,15.13
2019-04-26T20:01:12.257Z,13.45
2019-04-26T20:03:43.030Z,12.68
2019-04-26T20:06:14.165Z,11.45
2019-04-26T20:14:19.170Z,10.98
2019-04-26T20:16:48.278Z,10.85
2019-04-26T20:19:18.018Z,11.12
2019-04-26T20:21:49.708Z,12.43
2019-04-26T20:24:18.241Z,11.22
2019-04-26T20:26:48.639Z,11.38
2019-04-26T20:29:17.103Z,11.60
2019-04-26T20:31:52.066Z,11.03
2019-04-26T20:34:21.847Z,8.75
2019-04-26T20:36:52.032Z,10.00
2019-04-26T20:39:23.512Z,9.67
2019-04-26T20:42:01.161Z,9.68
2019-04-26T20:44:23.928Z,9.23
2019-04-26T20:46:51.963Z,9.15
2019-04-26T20:49:21.813Z,9.35
2019-04-26T20:51:51.823Z,9.70
2019-04-26T20:54:22.345Z,9.28
2019-04-26T20:56:55.311Z,9.35
2019-04-26T20:59:23.413Z,9.10
2019-04-26T21:02:03.340Z,8.93
2019-04-26T21:04:35.057Z,9.30
2019-04-26T21:06:51.750Z,9.77
2019-04-26T21:09:21.875Z,8.60
2019-04-26T21:11:51.663Z,9.35
2019-04-26T21:14:21.368Z,9.50
2019-04-26T21:16:50.584Z,10.18
2019-04-26T21:19:20.206Z,9.83
2019-04-26T21:21:50.410Z,10.67
2019-04-26T21:24:23.159Z,9.95
2019-04-26T21:26:54.741Z,9.75
2019-04-26T21:29:41.668Z,9.63
2019-04-26T21:32:51.506Z,9.38
2019-04-26T21:35:36.651Z,10.18
2019-04-26T21:38:09.779Z,9.08
2019-04-26T21:40:39.853Z,9.25
2019-04-26T21:43:08.308Z,8.35
2019-04-26T21:45:36.753Z,8.80
2019-04-26T21:48:06.946Z,7.87
2019-04-26T21:50:38.727Z,8.10
2019-04-26T21:53:07.040Z,7.62
2019-04-26T21:55:38.752Z,7.75
2019-04-26T21:58:05.708Z,7.25
2019-04-26T22:00:35.828Z,7.78
2019-04-26T22:03:07.830Z,7.17
2019-04-26T22:05:35.291Z,8.25
2019-04-26T22:08:04.037Z,8.25
2019-04-26T22:10:43.732Z,9.00
2019-04-26T22:13:11.835Z,8.30
2019-04-26T22:15:41.898Z,9.25
2019-04-26T22:18:21.183Z,8.87
2019-04-26T22:20:53.998Z,8.75
2019-04-26T22:26:08.374Z,9.93
2019-04-26T22:28:35.977Z,9.98
2019-04-26T22:31:08.529Z,9.78
2019-04-26T22:33:35.489Z,9.93
2019-04-26T22:36:04.162Z,9.40
2019-04-26T22:38:34.006Z,10.00
2019-04-26T22:41:03.129Z,11.15
2019-04-26T22:43:39.340Z,12.10
2019-04-26T22:46:18.645Z,10.50
2019-04-26T22:48:46.777Z,10.80
2019-04-26T22:51:15.275Z,11.30
2019-04-26T22:53:43.722Z,10.35
2019-04-26T22:56:13.384Z,10.82
2019-04-26T22:58:44.118Z,10.72
2019-04-26T23:01:12.746Z,9.65
2019-04-26T23:03:46.180Z,9.00
2019-04-26T23:06:30.686Z,10.03
2019-04-26T23:08:59.120Z,9.83
2019-04-26T23:11:27.611Z,9.13
2019-04-26T23:13:57.755Z,8.83
2019-04-26T23:16:33.777Z,9.20
2019-04-26T23:19:09.822Z,9.30
2019-04-26T23:21:44.261Z,8.68
2019-04-26T23:24:31.827Z,9.65
2019-04-26T23:27:00.268Z,8.65
2019-04-26T23:29:28.707Z,7.87
2019-04-26T23:31:57.139Z,8.05
2019-04-26T23:34:25.573Z,8.33
2019-04-26T23:36:54.153Z,7.78
2019-04-26T23:39:22.849Z,7.95
2019-04-26T23:41:53.947Z,7.27
2019-04-26T23:44:41.928Z,7.62
2019-04-26T23:47:20.570Z,7.17
2019-04-26T23:49:40.509Z,6.10
2019-04-26T23:52:08.954Z,6.23
2019-04-26T23:54:37.395Z,6.55
2019-04-26T23:57:05.829Z,6.40
2019-04-26T23:59:34.349Z,5.95
